sensor_id;sensor_type;location;lat;lon;timestamp;pressure;altitude;pressure_sealevel;temperature;humidity
20987;BME280;10652;50.306;8.570;2023-02-17T00:02:14;98596.81;;;7.50;99.87
20987;BME280;10652;50.306;8.570;2023-02-17T00:06:19;98591.69;;;7.45;100.00
20987;BME280;10652;50.306;8.570;2023-02-17T00:10:22;98591.81;;;7.41;100.00
20987;BME280;10652;50.306;8.570;2023-02-17T00:14:24;98590.16;;;7.38;100.00
20987;BME280;10652;50.306;8.570;2023-02-17T00:18:26;98590.25;;;7.33;100.00
20987;BME280;10652;50.306;8.570;2023-02-17T00:22:29;98580.78;;;7.29;100.00
20987;BME280;10652;50.306;8.570;2023-02-17T00:26:31;98580.88;;;7.26;100.00
20987;BME280;10652;50.306;8.570;2023-02-17T00:30:33;98576.72;;;7.18;100.00
20987;BME280;10652;50.306;8.570;2023-02-17T00:34:36;98582.16;;;7.09;100.00
20987;BME280;10652;50.306;8.570;2023-02-17T00:38:38;98576.13;;;7.08;100.00
20987;BME280;10652;50.306;8.570;2023-02-17T00:42:40;98570.78;;;7.13;100.00
20987;BME280;10652;50.306;8.570;2023-02-17T00:46:44;98576.06;;;7.10;100.00
20987;BME280;10652;50.306;8.570;2023-02-17T00:50:47;98583.03;;;7.09;100.00
20987;BME280;10652;50.306;8.570;2023-02-17T00:54:50;98590.84;;;7.11;100.00
20987;BME280;10652;50.306;8.570;2023-02-17T00:58:52;98592.47;;;7.15;100.00
20987;BME280;10652;50.306;8.570;2023-02-17T01:02:54;98581.94;;;7.18;100.00
20987;BME280;10652;50.306;8.570;2023-02-17T01:06:57;98590.47;;;7.26;100.00
20987;BME280;10652;50.306;8.570;2023-02-17T01:10:59;98595.22;;;7.44;100.00
20987;BME280;10652;50.306;8.570;2023-02-17T01:15:01;98598.50;;;7.52;100.00
20987;BME280;10652;50.306;8.570;2023-02-17T01:19:09;98595.78;;;7.55;100.00
20987;BME280;10652;50.306;8.570;2023-02-17T01:23:13;98591.31;;;7.60;100.00
20987;BME280;10652;50.306;8.570;2023-02-17T01:27:15;98585.97;;;7.63;100.00
20987;BME280;10652;50.306;8.570;2023-02-17T01:31:18;98589.44;;;7.65;100.00
20987;BME280;10652;50.306;8.570;2023-02-17T01:35:21;98585.94;;;7.66;100.00
20987;BME280;10652;50.306;8.570;2023-02-17T01:39:23;98574.50;;;7.69;100.00
20987;BME280;10652;50.306;8.570;2023-02-17T01:43:26;98562.25;;;7.71;100.00
20987;BME280;10652;50.306;8.570;2023-02-17T01:47:28;98556.91;;;7.75;100.00
20987;BME280;10652;50.306;8.570;2023-02-17T01:51:33;98546.31;;;7.80;100.00
20987;BME280;10652;50.306;8.570;2023-02-17T01:55:38;98533.97;;;7.85;100.00
20987;BME280;10652;50.306;8.570;2023-02-17T01:59:43;98519.13;;;7.86;100.00
20987;BME280;10652;50.306;8.570;2023-02-17T02:03:46;98511.28;;;7.86;100.00
20987;BME280;10652;50.306;8.570;2023-02-17T02:07:49;98506.88;;;7.86;100.00
20987;BME280;10652;50.306;8.570;2023-02-17T02:11:51;98501.63;;;7.88;100.00
20987;BME280;10652;50.306;8.570;2023-02-17T02:21:23;98482.31;;;7.92;100.00
20987;BME280;10652;50.306;8.570;2023-02-17T02:25:27;98485.84;;;7.91;100.00
20987;BME280;10652;50.306;8.570;2023-02-17T02:30:36;98480.69;;;7.88;100.00
20987;BME280;10652;50.306;8.570;2023-02-17T02:34:38;98474.56;;;7.89;100.00
20987;BME280;10652;50.306;8.570;2023-02-17T02:38:46;98482.31;;;7.92;100.00
20987;BME280;10652;50.306;8.570;2023-02-17T02:42:54;98475.38;;;7.91;100.00
20987;BME280;10652;50.306;8.570;2023-02-17T02:47:34;98470.06;;;7.94;100.00
20987;BME280;10652;50.306;8.570;2023-02-17T02:56:04;98468.19;;;7.99;100.00
20987;BME280;10652;50.306;8.570;2023-02-17T03:00:50;98462.00;;;8.00;100.00
20987;BME280;10652;50.306;8.570;2023-02-17T03:09:22;98465.34;;;8.05;100.00
20987;BME280;10652;50.306;8.570;2023-02-17T03:13:25;98464.50;;;8.04;100.00
20987;BME280;10652;50.306;8.570;2023-02-17T03:17:31;98468.75;;;8.08;100.00
20987;BME280;10652;50.306;8.570;2023-02-17T03:21:41;98459.97;;;8.09;100.00
20987;BME280;10652;50.306;8.570;2023-02-17T03:25:44;98453.81;;;8.12;100.00
20987;BME280;10652;50.306;8.570;2023-02-17T03:29:47;98460.94;;;8.07;100.00
20987;BME280;10652;50.306;8.570;2023-02-17T03:33:51;98454.31;;;7.95;100.00
20987;BME280;10652;50.306;8.570;2023-02-17T03:37:54;98449.59;;;7.78;100.00
20987;BME280;10652;50.306;8.570;2023-02-17T03:41:56;98454.16;;;7.72;100.00
20987;BME280;10652;50.306;8.570;2023-02-17T03:45:59;98446.34;;;7.70;100.00
20987;BME280;10652;50.306;8.570;2023-02-17T03:50:01;98441.13;;;7.70;100.00
20987;BME280;10652;50.306;8.570;2023-02-17T03:54:03;98439.94;;;7.80;100.00
20987;BME280;10652;50.306;8.570;2023-02-17T03:58:05;98437.22;;;7.83;100.00
20987;BME280;10652;50.306;8.570;2023-02-17T04:02:08;98447.53;;;7.90;100.00
20987;BME280;10652;50.306;8.570;2023-02-17T04:06:10;98444.78;;;7.94;100.00
20987;BME280;10652;50.306;8.570;2023-02-17T04:10:12;98438.69;;;7.94;100.00
20987;BME280;10652;50.306;8.570;2023-02-17T04:14:15;98442.09;;;7.96;100.00
20987;BME280;10652;50.306;8.570;2023-02-17T04:18:18;98443.69;;;8.00;100.00
20987;BME280;10652;50.306;8.570;2023-02-17T04:22:20;98441.06;;;8.01;100.00
20987;BME280;10652;50.306;8.570;2023-02-17T04:26:23;98434.94;;;8.02;100.00
20987;BME280;10652;50.306;8.570;2023-02-17T04:30:25;98436.69;;;8.02;100.00
20987;BME280;10652;50.306;8.570;2023-02-17T04:34:27;98440.94;;;8.04;100.00
20987;BME280;10652;50.306;8.570;2023-02-17T04:38:31;98444.38;;;8.06;100.00
20987;BME280;10652;50.306;8.570;2023-02-17T04:42:37;98448.66;;;8.09;100.00
20987;BME280;10652;50.306;8.570;2023-02-17T04:46:39;98444.22;;;8.12;100.00
20987;BME280;10652;50.306;8.570;2023-02-17T04:50:41;98445.78;;;8.18;100.00
20987;BME280;10652;50.306;8.570;2023-02-17T04:54:43;98450.22;;;8.16;100.00
20987;BME280;10652;50.306;8.570;2023-02-17T04:58:46;98445.00;;;8.16;100.00
20987;BME280;10652;50.306;8.570;2023-02-17T05:02:48;98443.16;;;8.18;100.00
20987;BME280;10652;50.306;8.570;2023-02-17T05:06:50;98438.78;;;8.18;100.00
20987;BME280;10652;50.306;8.570;2023-02-17T05:10:52;98433.84;;;8.37;100.00
20987;BME280;10652;50.306;8.570;2023-02-17T05:14:54;98434.59;;;8.41;100.00
20987;BME280;10652;50.306;8.570;2023-02-17T05:18:56;98447.66;;;8.42;100.00
20987;BME280;10652;50.306;8.570;2023-02-17T05:22:59;98451.09;;;8.44;100.00
20987;BME280;10652;50.306;8.570;2023-02-17T05:27:01;98452.88;;;8.42;100.00
20987;BME280;10652;50.306;8.570;2023-02-17T05:31:03;98454.69;;;8.40;100.00
20987;BME280;10652;50.306;8.570;2023-02-17T05:35:06;98464.31;;;8.40;100.00
20987;BME280;10652;50.306;8.570;2023-02-17T05:39:08;98458.16;;;8.41;100.00
20987;BME280;10652;50.306;8.570;2023-02-17T05:43:11;98462.38;;;8.45;100.00
20987;BME280;10652;50.306;8.570;2023-02-17T05:47:13;98453.63;;;8.46;100.00
20987;BME280;10652;50.306;8.570;2023-02-17T05:51:15;98444.13;;;8.43;100.00
20987;BME280;10652;50.306;8.570;2023-02-17T05:55:18;98451.16;;;8.41;100.00
20987;BME280;10652;50.306;8.570;2023-02-17T05:59:20;98443.41;;;8.38;100.00
20987;BME280;10652;50.306;8.570;2023-02-17T06:03:22;98453.88;;;8.38;100.00
20987;BME280;10652;50.306;8.570;2023-02-17T06:07:25;98453.00;;;8.39;100.00
20987;BME280;10652;50.306;8.570;2023-02-17T06:11:27;98450.28;;;8.68;100.00
20987;BME280;10652;50.306;8.570;2023-02-17T06:15:29;98448.25;;;8.77;100.00
20987;BME280;10652;50.306;8.570;2023-02-17T06:19:31;98443.22;;;8.70;100.00
20987;BME280;10652;50.306;8.570;2023-02-17T06:23:33;98444.44;;;8.60;100.00
20987;BME280;10652;50.306;8.570;2023-02-17T06:27:36;98448.22;;;8.52;100.00
20987;BME280;10652;50.306;8.570;2023-02-17T06:31:38;98453.44;;;8.52;100.00
20987;BME280;10652;50.306;8.570;2023-02-17T06:35:40;98449.97;;;8.51;100.00
20987;BME280;10652;50.306;8.570;2023-02-17T06:39:42;98463.81;;;8.55;100.00
20987;BME280;10652;50.306;8.570;2023-02-17T06:43:44;98453.28;;;8.56;100.00
20987;BME280;10652;50.306;8.570;2023-02-17T06:47:47;98453.25;;;8.58;100.00
20987;BME280;10652;50.306;8.570;2023-02-17T06:51:49;98467.13;;;8.60;100.00
20987;BME280;10652;50.306;8.570;2023-02-17T06:55:51;98462.66;;;8.63;100.00
20987;BME280;10652;50.306;8.570;2023-02-17T06:59:53;98474.66;;;8.70;100.00
20987;BME280;10652;50.306;8.570;2023-02-17T07:03:55;98475.38;;;8.76;100.00
20987;BME280;10652;50.306;8.570;2023-02-17T07:07:58;98476.38;;;8.72;100.00
20987;BME280;10652;50.306;8.570;2023-02-17T07:12:00;98474.56;;;8.74;100.00
20987;BME280;10652;50.306;8.570;2023-02-17T07:16:03;98477.88;;;8.79;100.00
20987;BME280;10652;50.306;8.570;2023-02-17T07:20:06;98470.84;;;9.05;100.00
20987;BME280;10652;50.306;8.570;2023-02-17T07:24:10;98456.09;;;9.52;100.00
20987;BME280;10652;50.306;8.570;2023-02-17T07:28:12;98462.84;;;10.06;100.00
20987;BME280;10652;50.306;8.570;2023-02-17T07:32:14;98457.09;;;9.96;96.60
20987;BME280;10652;50.306;8.570;2023-02-17T07:36:17;98458.84;;;9.73;93.91
20987;BME280;10652;50.306;8.570;2023-02-17T07:40:19;98468.28;;;9.53;94.10
20987;BME280;10652;50.306;8.570;2023-02-17T07:44:21;98465.19;;;9.42;94.97
20987;BME280;10652;50.306;8.570;2023-02-17T07:48:24;98460.16;;;9.36;95.71
20987;BME280;10652;50.306;8.570;2023-02-17T07:52:26;98461.09;;;9.35;96.21
20987;BME280;10652;50.306;8.570;2023-02-17T07:56:28;98449.91;;;9.30;95.94
20987;BME280;10652;50.306;8.570;2023-02-17T08:00:31;98452.69;;;9.26;96.82
20987;BME280;10652;50.306;8.570;2023-02-17T08:04:33;98462.25;;;9.27;97.12
20987;BME280;10652;50.306;8.570;2023-02-17T08:08:35;98461.25;;;9.31;97.67
20987;BME280;10652;50.306;8.570;2023-02-17T08:12:56;98456.63;;;9.37;97.83
20987;BME280;10652;50.306;8.570;2023-02-17T08:17:17;98443.41;;;9.40;97.95
20987;BME280;10652;50.306;8.570;2023-02-17T08:21:20;98458.22;;;9.41;98.08
20987;BME280;10652;50.306;8.570;2023-02-17T08:25:23;98452.03;;;9.44;98.45
20987;BME280;10652;50.306;8.570;2023-02-17T08:29:25;98459.91;;;9.44;98.82
20987;BME280;10652;50.306;8.570;2023-02-17T08:33:28;98462.44;;;9.45;98.96
20987;BME280;10652;50.306;8.570;2023-02-17T08:37:30;98464.16;;;9.46;99.48
20987;BME280;10652;50.306;8.570;2023-02-17T08:41:36;98463.03;;;9.53;99.68
20987;BME280;10652;50.306;8.570;2023-02-17T08:45:38;98454.94;;;9.59;100.00
20987;BME280;10652;50.306;8.570;2023-02-17T08:49:40;98458.09;;;9.69;100.00
20987;BME280;10652;50.306;8.570;2023-02-17T08:53:43;98472.00;;;9.71;100.00
20987;BME280;10652;50.306;8.570;2023-02-17T08:57:46;98464.75;;;9.79;100.00
20987;BME280;10652;50.306;8.570;2023-02-17T09:01:49;98464.34;;;9.90;100.00
20987;BME280;10652;50.306;8.570;2023-02-17T09:05:55;98473.38;;;10.04;100.00
20987;BME280;10652;50.306;8.570;2023-02-17T09:09:58;98476.16;;;10.23;100.00
20987;BME280;10652;50.306;8.570;2023-02-17T09:14:00;98468.19;;;10.26;100.00
20987;BME280;10652;50.306;8.570;2023-02-17T09:18:03;98465.44;;;10.29;100.00
20987;BME280;10652;50.306;8.570;2023-02-17T09:22:05;98458.34;;;10.31;100.00
20987;BME280;10652;50.306;8.570;2023-02-17T09:26:10;98462.25;;;10.21;100.00
20987;BME280;10652;50.306;8.570;2023-02-17T09:30:12;98465.25;;;10.34;100.00
20987;BME280;10652;50.306;8.570;2023-02-17T09:34:15;98461.84;;;10.54;100.00
20987;BME280;10652;50.306;8.570;2023-02-17T09:38:17;98468.00;;;10.74;100.00
20987;BME280;10652;50.306;8.570;2023-02-17T09:42:22;98465.31;;;10.76;99.84
20987;BME280;10652;50.306;8.570;2023-02-17T09:46:29;98467.06;;;10.75;99.40
20987;BME280;10652;50.306;8.570;2023-02-17T09:58:58;98492.31;;;10.58;99.48
20987;BME280;10652;50.306;8.570;2023-02-17T10:03:14;98491.47;;;10.57;100.00
20987;BME280;10652;50.306;8.570;2023-02-17T10:07:25;98495.63;;;10.63;100.00
20987;BME280;10652;50.306;8.570;2023-02-17T10:11:32;98483.31;;;10.63;100.00
20987;BME280;10652;50.306;8.570;2023-02-17T10:16:02;98478.75;;;10.68;100.00
20987;BME280;10652;50.306;8.570;2023-02-17T10:20:10;98483.03;;;10.71;100.00
20987;BME280;10652;50.306;8.570;2023-02-17T10:24:14;98493.16;;;10.80;99.89
20987;BME280;10652;50.306;8.570;2023-02-17T10:28:24;98480.50;;;10.89;100.00
20987;BME280;10652;50.306;8.570;2023-02-17T10:32:38;98475.16;;;10.91;98.65
20987;BME280;10652;50.306;8.570;2023-02-17T10:40:54;98487.63;;;11.08;98.33
20987;BME280;10652;50.306;8.570;2023-02-17T10:45:10;98481.63;;;11.26;98.08
20987;BME280;10652;50.306;8.570;2023-02-17T10:49:24;98472.75;;;11.49;95.82
20987;BME280;10652;50.306;8.570;2023-02-17T10:53:33;98485.00;;;11.68;95.45
20987;BME280;10652;50.306;8.570;2023-02-17T10:57:38;98481.63;;;11.85;94.04
20987;BME280;10652;50.306;8.570;2023-02-17T11:01:42;98485.47;;;11.97;92.54
20987;BME280;10652;50.306;8.570;2023-02-17T11:05:55;98482.47;;;12.04;91.74
20987;BME280;10652;50.306;8.570;2023-02-17T11:10:01;98475.09;;;12.12;89.92
20987;BME280;10652;50.306;8.570;2023-02-17T11:18:16;98475.16;;;12.30;89.02
20987;BME280;10652;50.306;8.570;2023-02-17T11:22:45;98466.53;;;12.45;87.38
20987;BME280;10652;50.306;8.570;2023-02-17T11:30:59;98468.63;;;12.74;87.11
20987;BME280;10652;50.306;8.570;2023-02-17T11:35:03;98463.69;;;12.85;85.18
20987;BME280;10652;50.306;8.570;2023-02-17T11:39:20;98464.97;;;12.77;83.81
20987;BME280;10652;50.306;8.570;2023-02-17T11:43:23;98455.28;;;12.77;84.72
20987;BME280;10652;50.306;8.570;2023-02-17T11:52:02;98447.13;;;12.64;84.50
20987;BME280;10652;50.306;8.570;2023-02-17T11:56:29;98437.00;;;12.74;85.45
20987;BME280;10652;50.306;8.570;2023-02-17T12:00:48;98438.25;;;12.84;85.15
20987;BME280;10652;50.306;8.570;2023-02-17T12:05:09;98424.28;;;12.82;84.00
20987;BME280;10652;50.306;8.570;2023-02-17T12:09:52;98420.66;;;12.85;83.84
20987;BME280;10652;50.306;8.570;2023-02-17T12:18:45;98397.31;;;12.94;83.94
20987;BME280;10652;50.306;8.570;2023-02-17T12:35:57;98377.97;;;13.11;82.69
20987;BME280;10652;50.306;8.570;2023-02-17T12:40:04;98369.66;;;13.19;82.24
20987;BME280;10652;50.306;8.570;2023-02-17T12:44:19;98377.91;;;13.12;81.83
20987;BME280;10652;50.306;8.570;2023-02-17T12:48:31;98379.22;;;13.21;80.98
20987;BME280;10652;50.306;8.570;2023-02-17T12:52:39;98380.75;;;13.25;80.97
20987;BME280;10652;50.306;8.570;2023-02-17T13:01:03;98372.72;;;13.27;80.03
20987;BME280;10652;50.306;8.570;2023-02-17T13:05:23;98380.38;;;13.16;80.45
20987;BME280;10652;50.306;8.570;2023-02-17T13:09:34;98375.41;;;13.09;81.23
20987;BME280;10652;50.306;8.570;2023-02-17T13:13:37;98377.16;;;12.93;81.20
20987;BME280;10652;50.306;8.570;2023-02-17T13:17:52;98379.78;;;12.76;82.00
20987;BME280;10652;50.306;8.570;2023-02-17T13:21:56;98379.47;;;12.65;82.45
20987;BME280;10652;50.306;8.570;2023-02-17T13:38:35;98364.78;;;12.42;84.93
20987;BME280;10652;50.306;8.570;2023-02-17T13:42:39;98361.94;;;12.64;84.40
20987;BME280;10652;50.306;8.570;2023-02-17T13:46:42;98358.94;;;12.72;83.50
20987;BME280;10652;50.306;8.570;2023-02-17T13:50:47;98347.38;;;12.74;83.21
20987;BME280;10652;50.306;8.570;2023-02-17T13:54:57;98349.94;;;12.76;83.22
20987;BME280;10652;50.306;8.570;2023-02-17T13:59:12;98347.38;;;12.74;82.76
20987;BME280;10652;50.306;8.570;2023-02-17T14:07:34;98333.78;;;12.99;82.32
20987;BME280;10652;50.306;8.570;2023-02-17T14:11:37;98341.47;;;13.03;81.93
20987;BME280;10652;50.306;8.570;2023-02-17T14:15:51;98333.38;;;13.06;81.82
20987;BME280;10652;50.306;8.570;2023-02-17T14:19:53;98336.94;;;13.05;81.42
20987;BME280;10652;50.306;8.570;2023-02-17T14:23:56;98331.84;;;13.02;81.25
20987;BME280;10652;50.306;8.570;2023-02-17T14:27:59;98344.22;;;13.00;81.01
20987;BME280;10652;50.306;8.570;2023-02-17T14:32:01;98345.78;;;13.04;81.35
20987;BME280;10652;50.306;8.570;2023-02-17T14:36:04;98349.38;;;13.03;81.16
20987;BME280;10652;50.306;8.570;2023-02-17T14:40:21;98357.28;;;13.03;80.98
20987;BME280;10652;50.306;8.570;2023-02-17T14:44:24;98348.88;;;12.95;81.16
20987;BME280;10652;50.306;8.570;2023-02-17T14:48:26;98350.47;;;12.82;81.73
20987;BME280;10652;50.306;8.570;2023-02-17T14:52:29;98348.91;;;12.78;82.06
20987;BME280;10652;50.306;8.570;2023-02-17T14:56:36;98343.03;;;12.73;83.30
20987;BME280;10652;50.306;8.570;2023-02-17T15:00:41;98350.25;;;12.69;83.08
20987;BME280;10652;50.306;8.570;2023-02-17T15:04:43;98354.25;;;12.59;83.04
20987;BME280;10652;50.306;8.570;2023-02-17T15:08:46;98359.69;;;12.56;83.81
20987;BME280;10652;50.306;8.570;2023-02-17T15:12:50;98378.22;;;12.55;84.60
20987;BME280;10652;50.306;8.570;2023-02-17T15:16:52;98371.22;;;12.54;84.68
20987;BME280;10652;50.306;8.570;2023-02-17T15:20:55;98355.28;;;12.57;84.68
20987;BME280;10652;50.306;8.570;2023-02-17T15:24:57;98353.56;;;12.56;83.96
20987;BME280;10652;50.306;8.570;2023-02-17T15:28:59;98371.09;;;12.57;84.76
20987;BME280;10652;50.306;8.570;2023-02-17T15:33:01;98359.75;;;12.55;84.23
20987;BME280;10652;50.306;8.570;2023-02-17T15:37:04;98347.84;;;12.48;83.52
20987;BME280;10652;50.306;8.570;2023-02-17T15:41:15;98349.84;;;12.43;84.22
20987;BME280;10652;50.306;8.570;2023-02-17T15:45:18;98353.47;;;12.40;84.46
20987;BME280;10652;50.306;8.570;2023-02-17T15:49:21;98360.66;;;12.37;84.40
20987;BME280;10652;50.306;8.570;2023-02-17T15:53:23;98375.06;;;12.30;84.88
20987;BME280;10652;50.306;8.570;2023-02-17T15:57:25;98378.19;;;12.38;86.53
20987;BME280;10652;50.306;8.570;2023-02-17T16:01:31;98366.50;;;12.60;85.13
20987;BME280;10652;50.306;8.570;2023-02-17T16:05:33;98356.81;;;12.78;83.18
20987;BME280;10652;50.306;8.570;2023-02-17T16:09:35;98354.50;;;12.55;82.42
20987;BME280;10652;50.306;8.570;2023-02-17T16:13:38;98345.22;;;12.29;83.51
20987;BME280;10652;50.306;8.570;2023-02-17T16:17:41;98346.06;;;12.12;84.52
20987;BME280;10652;50.306;8.570;2023-02-17T16:21:43;98350.38;;;11.95;85.95
20987;BME280;10652;50.306;8.570;2023-02-17T16:25:45;98349.59;;;11.75;87.00
20987;BME280;10652;50.306;8.570;2023-02-17T16:29:48;98360.22;;;11.54;88.97
20987;BME280;10652;50.306;8.570;2023-02-17T16:33:50;98364.50;;;11.38;90.38
20987;BME280;10652;50.306;8.570;2023-02-17T16:42:02;98374.41;;;11.12;92.98
20987;BME280;10652;50.306;8.570;2023-02-17T16:46:04;98362.53;;;11.02;93.22
20987;BME280;10652;50.306;8.570;2023-02-17T16:50:33;98377.50;;;11.00;94.02
20987;BME280;10652;50.306;8.570;2023-02-17T16:54:34;98381.59;;;11.07;94.20
20987;BME280;10652;50.306;8.570;2023-02-17T16:58:36;98382.28;;;11.12;93.37
20987;BME280;10652;50.306;8.570;2023-02-17T17:02:39;98386.50;;;11.16;92.54
20987;BME280;10652;50.306;8.570;2023-02-17T17:06:50;98384.53;;;11.21;91.79
20987;BME280;10652;50.306;8.570;2023-02-17T17:10:53;98387.84;;;11.25;91.07
20987;BME280;10652;50.306;8.570;2023-02-17T17:14:55;98386.00;;;11.27;89.98
20987;BME280;10652;50.306;8.570;2023-02-17T17:18:58;98395.59;;;11.28;89.98
20987;BME280;10652;50.306;8.570;2023-02-17T17:23:02;98398.19;;;11.29;89.26
20987;BME280;10652;50.306;8.570;2023-02-17T17:27:05;98400.66;;;11.32;88.99
20987;BME280;10652;50.306;8.570;2023-02-17T17:31:09;98406.84;;;11.31;88.50
20987;BME280;10652;50.306;8.570;2023-02-17T17:35:12;98413.81;;;11.32;88.33
20987;BME280;10652;50.306;8.570;2023-02-17T17:39:17;98431.31;;;11.33;88.14
20987;BME280;10652;50.306;8.570;2023-02-17T17:43:20;98438.41;;;11.31;88.18
20987;BME280;10652;50.306;8.570;2023-02-17T17:47:23;98445.38;;;11.32;88.16
20987;BME280;10652;50.306;8.570;2023-02-17T17:51:32;98462.94;;;11.32;88.42
20987;BME280;10652;50.306;8.570;2023-02-17T17:55:35;98475.22;;;11.31;88.67
20987;BME280;10652;50.306;8.570;2023-02-17T17:59:37;98478.00;;;11.28;89.80
20987;BME280;10652;50.306;8.570;2023-02-17T18:03:40;98484.16;;;11.27;90.97
20987;BME280;10652;50.306;8.570;2023-02-17T18:07:43;98494.97;;;11.21;92.53
20987;BME280;10652;50.306;8.570;2023-02-17T18:11:47;98504.16;;;11.11;94.57
20987;BME280;10652;50.306;8.570;2023-02-17T18:15:50;98514.13;;;11.03;97.42
20987;BME280;10652;50.306;8.570;2023-02-17T18:19:52;98522.38;;;10.94;99.39
20987;BME280;10652;50.306;8.570;2023-02-17T18:23:55;98530.38;;;10.91;100.00
20987;BME280;10652;50.306;8.570;2023-02-17T18:27:58;98528.00;;;10.85;100.00
20987;BME280;10652;50.306;8.570;2023-02-17T18:32:00;98534.38;;;10.79;100.00
20987;BME280;10652;50.306;8.570;2023-02-17T18:36:17;98531.78;;;10.78;100.00
20987;BME280;10652;50.306;8.570;2023-02-17T18:40:20;98547.13;;;10.67;100.00
20987;BME280;10652;50.306;8.570;2023-02-17T18:44:22;98564.03;;;10.60;100.00
20987;BME280;10652;50.306;8.570;2023-02-17T18:48:25;98564.13;;;10.58;100.00
20987;BME280;10652;50.306;8.570;2023-02-17T18:52:27;98566.97;;;10.52;100.00
20987;BME280;10652;50.306;8.570;2023-02-17T18:56:31;98578.34;;;10.53;100.00
20987;BME280;10652;50.306;8.570;2023-02-17T19:00:34;98579.47;;;10.45;100.00
20987;BME280;10652;50.306;8.570;2023-02-17T19:04:36;98586.63;;;10.42;100.00
20987;BME280;10652;50.306;8.570;2023-02-17T19:08:39;98592.78;;;10.41;100.00
20987;BME280;10652;50.306;8.570;2023-02-17T19:12:41;98604.09;;;10.43;100.00
20987;BME280;10652;50.306;8.570;2023-02-17T19:16:43;98601.69;;;10.37;100.00
20987;BME280;10652;50.306;8.570;2023-02-17T19:20:45;98607.84;;;10.36;100.00
20987;BME280;10652;50.306;8.570;2023-02-17T19:24:52;98602.56;;;10.37;100.00
20987;BME280;10652;50.306;8.570;2023-02-17T19:28:54;98614.03;;;10.35;100.00
20987;BME280;10652;50.306;8.570;2023-02-17T19:32:56;98617.75;;;10.29;100.00
20987;BME280;10652;50.306;8.570;2023-02-17T19:36:58;98613.59;;;10.22;100.00
20987;BME280;10652;50.306;8.570;2023-02-17T19:41:02;98610.38;;;10.16;100.00
20987;BME280;10652;50.306;8.570;2023-02-17T19:45:05;98616.81;;;10.07;100.00
20987;BME280;10652;50.306;8.570;2023-02-17T19:49:07;98617.03;;;10.01;100.00
20987;BME280;10652;50.306;8.570;2023-02-17T19:53:09;98626.63;;;10.02;100.00
20987;BME280;10652;50.306;8.570;2023-02-17T19:57:13;98631.91;;;10.00;100.00
20987;BME280;10652;50.306;8.570;2023-02-17T20:01:21;98634.59;;;9.99;100.00
20987;BME280;10652;50.306;8.570;2023-02-17T20:05:23;98642.47;;;9.99;100.00
20987;BME280;10652;50.306;8.570;2023-02-17T20:09:25;98649.53;;;9.97;100.00
20987;BME280;10652;50.306;8.570;2023-02-17T20:13:27;98646.09;;;9.95;100.00
20987;BME280;10652;50.306;8.570;2023-02-17T20:17:44;98644.34;;;9.95;100.00
20987;BME280;10652;50.306;8.570;2023-02-17T20:21:47;98637.28;;;9.97;100.00
20987;BME280;10652;50.306;8.570;2023-02-17T20:25:49;98630.19;;;9.99;100.00
20987;BME280;10652;50.306;8.570;2023-02-17T20:29:51;98631.88;;;10.02;100.00
20987;BME280;10652;50.306;8.570;2023-02-17T20:33:53;98636.22;;;10.03;100.00
20987;BME280;10652;50.306;8.570;2023-02-17T20:37:55;98639.75;;;10.02;100.00
20987;BME280;10652;50.306;8.570;2023-02-17T20:41:58;98644.25;;;9.98;100.00
20987;BME280;10652;50.306;8.570;2023-02-17T20:46:01;98641.78;;;9.94;100.00
20987;BME280;10652;50.306;8.570;2023-02-17T20:50:04;98638.34;;;9.92;100.00
20987;BME280;10652;50.306;8.570;2023-02-17T20:54:09;98631.44;;;9.89;100.00
20987;BME280;10652;50.306;8.570;2023-02-17T20:58:11;98638.47;;;9.89;100.00
20987;BME280;10652;50.306;8.570;2023-02-17T21:02:13;98654.19;;;9.89;100.00
20987;BME280;10652;50.306;8.570;2023-02-17T21:06:24;98649.84;;;9.88;100.00
20987;BME280;10652;50.306;8.570;2023-02-17T21:10:28;98657.78;;;9.86;100.00
20987;BME280;10652;50.306;8.570;2023-02-17T21:14:30;98657.72;;;9.88;100.00
20987;BME280;10652;50.306;8.570;2023-02-17T21:18:34;98667.25;;;9.90;100.00
20987;BME280;10652;50.306;8.570;2023-02-17T21:22:36;98662.88;;;9.91;100.00
20987;BME280;10652;50.306;8.570;2023-02-17T21:26:38;98667.22;;;9.92;100.00
20987;BME280;10652;50.306;8.570;2023-02-17T21:30:45;98663.41;;;10.00;100.00
20987;BME280;10652;50.306;8.570;2023-02-17T21:34:47;98655.59;;;9.99;100.00
20987;BME280;10652;50.306;8.570;2023-02-17T21:38:49;98651.34;;;9.95;100.00
20987;BME280;10652;50.306;8.570;2023-02-17T21:42:51;98662.00;;;9.90;100.00
20987;BME280;10652;50.306;8.570;2023-02-17T21:47:12;98662.22;;;9.84;100.00
20987;BME280;10652;50.306;8.570;2023-02-17T21:51:14;98658.88;;;9.81;100.00
20987;BME280;10652;50.306;8.570;2023-02-17T21:55:16;98665.75;;;9.83;100.00
20987;BME280;10652;50.306;8.570;2023-02-17T21:59:18;98661.25;;;9.87;100.00
20987;BME280;10652;50.306;8.570;2023-02-17T22:03:20;98659.22;;;9.95;100.00
20987;BME280;10652;50.306;8.570;2023-02-17T22:07:22;98653.75;;;10.01;100.00
20987;BME280;10652;50.306;8.570;2023-02-17T22:11:27;98647.66;;;10.00;100.00
20987;BME280;10652;50.306;8.570;2023-02-17T22:15:29;98645.78;;;10.04;100.00
20987;BME280;10652;50.306;8.570;2023-02-17T22:19:31;98648.41;;;10.04;100.00
20987;BME280;10652;50.306;8.570;2023-02-17T22:23:34;98656.19;;;10.07;100.00
20987;BME280;10652;50.306;8.570;2023-02-17T22:27:36;98641.22;;;10.09;100.00
20987;BME280;10652;50.306;8.570;2023-02-17T22:31:38;98657.09;;;10.06;100.00
20987;BME280;10652;50.306;8.570;2023-02-17T22:35:40;98663.31;;;10.03;100.00
20987;BME280;10652;50.306;8.570;2023-02-17T22:39:42;98676.50;;;10.02;100.00
20987;BME280;10652;50.306;8.570;2023-02-17T22:43:45;98660.91;;;9.97;100.00
20987;BME280;10652;50.306;8.570;2023-02-17T22:47:50;98655.81;;;9.93;100.00
20987;BME280;10652;50.306;8.570;2023-02-17T22:51:53;98643.69;;;9.89;100.00
20987;BME280;10652;50.306;8.570;2023-02-17T22:55:56;98649.97;;;9.85;100.00
20987;BME280;10652;50.306;8.570;2023-02-17T22:59:58;98659.66;;;9.83;100.00